sensor_id;sensor_type;location;lat;lon;timestamp;temperature;humidity
17954;DHT22;9102;53.548;9.926;2024-03-29T00:01:11;8.60;99.90
17954;DHT22;9102;53.548;9.926;2024-03-29T00:03:38;8.60;99.90
17954;DHT22;9102;53.548;9.926;2024-03-29T00:06:04;8.60;99.90
17954;DHT22;9102;53.548;9.926;2024-03-29T00:08:30;8.60;99.90
17954;DHT22;9102;53.548;9.926;2024-03-29T00:10:56;8.50;99.90
17954;DHT22;9102;53.548;9.926;2024-03-29T00:13:22;8.60;99.90
17954;DHT22;9102;53.548;9.926;2024-03-29T00:15:47;8.60;99.90
17954;DHT22;9102;53.548;9.926;2024-03-29T00:18:13;8.50;99.90
17954;DHT22;9102;53.548;9.926;2024-03-29T00:20:40;8.50;99.90
17954;DHT22;9102;53.548;9.926;2024-03-29T00:23:06;8.50;99.90
17954;DHT22;9102;53.548;9.926;2024-03-29T00:25:32;8.60;99.90
17954;DHT22;9102;53.548;9.926;2024-03-29T00:27:58;8.50;99.90
17954;DHT22;9102;53.548;9.926;2024-03-29T00:30:23;8.50;99.90
17954;DHT22;9102;53.548;9.926;2024-03-29T00:32:49;8.50;99.90
17954;DHT22;9102;53.548;9.926;2024-03-29T00:35:15;8.50;99.90
17954;DHT22;9102;53.548;9.926;2024-03-29T00:37:42;8.50;99.90
17954;DHT22;9102;53.548;9.926;2024-03-29T00:40:09;8.40;99.90
17954;DHT22;9102;53.548;9.926;2024-03-29T00:42:35;8.40;99.90
17954;DHT22;9102;53.548;9.926;2024-03-29T00:45:01;8.30;99.90
17954;DHT22;9102;53.548;9.926;2024-03-29T00:47:27;8.30;99.90
17954;DHT22;9102;53.548;9.926;2024-03-29T00:49:53;8.30;99.90
17954;DHT22;9102;53.548;9.926;2024-03-29T00:52:19;8.30;99.90
17954;DHT22;9102;53.548;9.926;2024-03-29T00:54:46;8.30;99.90
17954;DHT22;9102;53.548;9.926;2024-03-29T00:57:12;8.30;99.90
17954;DHT22;9102;53.548;9.926;2024-03-29T00:59:38;8.30;99.90
17954;DHT22;9102;53.548;9.926;2024-03-29T01:02:04;8.30;99.90
17954;DHT22;9102;53.548;9.926;2024-03-29T01:04:30;8.30;99.90
17954;DHT22;9102;53.548;9.926;2024-03-29T01:06:56;8.20;99.90
17954;DHT22;9102;53.548;9.926;2024-03-29T01:09:22;8.20;99.90
17954;DHT22;9102;53.548;9.926;2024-03-29T01:11:50;8.10;99.90
17954;DHT22;9102;53.548;9.926;2024-03-29T01:14:16;8.00;99.90
17954;DHT22;9102;53.548;9.926;2024-03-29T01:16:42;7.90;99.90
17954;DHT22;9102;53.548;9.926;2024-03-29T01:19:07;7.90;99.90
17954;DHT22;9102;53.548;9.926;2024-03-29T01:21:33;7.80;99.90
17954;DHT22;9102;53.548;9.926;2024-03-29T01:23:59;7.80;99.90
17954;DHT22;9102;53.548;9.926;2024-03-29T01:26:25;7.70;99.90
17954;DHT22;9102;53.548;9.926;2024-03-29T01:28:52;7.80;99.90
17954;DHT22;9102;53.548;9.926;2024-03-29T01:31:18;7.80;99.90
17954;DHT22;9102;53.548;9.926;2024-03-29T01:33:44;7.70;99.90
17954;DHT22;9102;53.548;9.926;2024-03-29T01:36:10;7.70;99.90
17954;DHT22;9102;53.548;9.926;2024-03-29T01:38:36;7.70;99.90
17954;DHT22;9102;53.548;9.926;2024-03-29T01:41:02;7.60;99.90
17954;DHT22;9102;53.548;9.926;2024-03-29T01:43:28;7.60;99.90
17954;DHT22;9102;53.548;9.926;2024-03-29T01:45:56;7.60;99.90
17954;DHT22;9102;53.548;9.926;2024-03-29T01:48:24;7.60;99.90
17954;DHT22;9102;53.548;9.926;2024-03-29T01:50:53;7.50;99.90
17954;DHT22;9102;53.548;9.926;2024-03-29T01:53:21;7.50;99.90
17954;DHT22;9102;53.548;9.926;2024-03-29T01:55:48;7.40;99.90
17954;DHT22;9102;53.548;9.926;2024-03-29T01:58:15;7.40;99.90
17954;DHT22;9102;53.548;9.926;2024-03-29T02:00:50;7.40;99.90
17954;DHT22;9102;53.548;9.926;2024-03-29T02:03:18;7.40;99.90
17954;DHT22;9102;53.548;9.926;2024-03-29T02:05:46;7.30;99.90
17954;DHT22;9102;53.548;9.926;2024-03-29T02:08:14;7.40;99.90
17954;DHT22;9102;53.548;9.926;2024-03-29T02:10:41;7.40;99.90
17954;DHT22;9102;53.548;9.926;2024-03-29T02:13:08;7.40;99.90
17954;DHT22;9102;53.548;9.926;2024-03-29T02:15:35;7.40;99.90
17954;DHT22;9102;53.548;9.926;2024-03-29T02:18:01;7.30;99.90
17954;DHT22;9102;53.548;9.926;2024-03-29T02:20:30;7.30;99.90
17954;DHT22;9102;53.548;9.926;2024-03-29T02:23:01;7.30;99.90
17954;DHT22;9102;53.548;9.926;2024-03-29T02:25:30;7.30;99.90
17954;DHT22;9102;53.548;9.926;2024-03-29T02:27:58;7.20;99.90
17954;DHT22;9102;53.548;9.926;2024-03-29T02:30:26;7.20;99.90
17954;DHT22;9102;53.548;9.926;2024-03-29T02:32:53;7.20;99.90
17954;DHT22;9102;53.548;9.926;2024-03-29T02:35:20;7.20;99.90
17954;DHT22;9102;53.548;9.926;2024-03-29T02:37:47;7.10;99.90
17954;DHT22;9102;53.548;9.926;2024-03-29T02:40:13;7.10;99.90
17954;DHT22;9102;53.548;9.926;2024-03-29T02:42:41;7.10;99.90
17954;DHT22;9102;53.548;9.926;2024-03-29T02:45:09;7.10;99.90
17954;DHT22;9102;53.548;9.926;2024-03-29T02:47:35;7.10;99.90
17954;DHT22;9102;53.548;9.926;2024-03-29T02:50:02;7.10;99.90
17954;DHT22;9102;53.548;9.926;2024-03-29T02:52:28;7.10;99.90
17954;DHT22;9102;53.548;9.926;2024-03-29T02:54:55;7.10;99.90
17954;DHT22;9102;53.548;9.926;2024-03-29T02:57:21;7.10;99.90
17954;DHT22;9102;53.548;9.926;2024-03-29T02:59:49;7.20;99.90
17954;DHT22;9102;53.548;9.926;2024-03-29T03:02:15;7.10;99.90
17954;DHT22;9102;53.548;9.926;2024-03-29T03:04:41;7.10;99.90
17954;DHT22;9102;53.548;9.926;2024-03-29T03:07:07;7.10;99.90
17954;DHT22;9102;53.548;9.926;2024-03-29T03:09:48;7.10;99.90
17954;DHT22;9102;53.548;9.926;2024-03-29T03:12:32;7.10;99.90
17954;DHT22;9102;53.548;9.926;2024-03-29T03:15:00;7.10;99.90
17954;DHT22;9102;53.548;9.926;2024-03-29T03:17:30;7.10;99.90
17954;DHT22;9102;53.548;9.926;2024-03-29T03:19:57;7.00;99.90
17954;DHT22;9102;53.548;9.926;2024-03-29T03:22:24;7.00;99.90
17954;DHT22;9102;53.548;9.926;2024-03-29T03:24:51;7.00;99.90
17954;DHT22;9102;53.548;9.926;2024-03-29T03:27:17;7.00;99.90
17954;DHT22;9102;53.548;9.926;2024-03-29T03:29:43;7.00;99.90
17954;DHT22;9102;53.548;9.926;2024-03-29T03:32:10;7.00;99.90
17954;DHT22;9102;53.548;9.926;2024-03-29T03:34:37;7.10;99.90
17954;DHT22;9102;53.548;9.926;2024-03-29T03:37:03;7.00;99.90
17954;DHT22;9102;53.548;9.926;2024-03-29T03:39:30;7.10;99.90
17954;DHT22;9102;53.548;9.926;2024-03-29T03:41:55;7.00;99.90
17954;DHT22;9102;53.548;9.926;2024-03-29T03:44:22;7.00;99.90
17954;DHT22;9102;53.548;9.926;2024-03-29T03:46:50;7.00;99.90
17954;DHT22;9102;53.548;9.926;2024-03-29T03:49:18;7.00;99.90
17954;DHT22;9102;53.548;9.926;2024-03-29T03:51:44;7.00;99.90
17954;DHT22;9102;53.548;9.926;2024-03-29T03:54:10;7.00;99.90
17954;DHT22;9102;53.548;9.926;2024-03-29T03:56:36;7.00;99.90
17954;DHT22;9102;53.548;9.926;2024-03-29T03:59:03;6.90;99.90
17954;DHT22;9102;53.548;9.926;2024-03-29T04:01:28;6.90;99.90
17954;DHT22;9102;53.548;9.926;2024-03-29T04:03:55;6.90;99.90
17954;DHT22;9102;53.548;9.926;2024-03-29T04:06:22;6.90;99.90
17954;DHT22;9102;53.548;9.926;2024-03-29T04:08:49;6.90;99.90
17954;DHT22;9102;53.548;9.926;2024-03-29T04:11:15;6.90;99.90
17954;DHT22;9102;53.548;9.926;2024-03-29T04:13:42;6.90;99.90
17954;DHT22;9102;53.548;9.926;2024-03-29T04:16:08;6.90;99.90
17954;DHT22;9102;53.548;9.926;2024-03-29T04:18:35;7.00;99.90
17954;DHT22;9102;53.548;9.926;2024-03-29T04:21:01;7.00;99.90
17954;DHT22;9102;53.548;9.926;2024-03-29T04:23:30;7.00;99.90
17954;DHT22;9102;53.548;9.926;2024-03-29T04:25:57;7.00;99.90
17954;DHT22;9102;53.548;9.926;2024-03-29T04:28:24;7.10;99.90
17954;DHT22;9102;53.548;9.926;2024-03-29T04:30:51;7.00;99.90
17954;DHT22;9102;53.548;9.926;2024-03-29T04:33:18;7.00;99.90
17954;DHT22;9102;53.548;9.926;2024-03-29T04:35:53;7.00;99.90
17954;DHT22;9102;53.548;9.926;2024-03-29T04:38:20;7.10;99.90
17954;DHT22;9102;53.548;9.926;2024-03-29T04:40:48;7.00;99.90
17954;DHT22;9102;53.548;9.926;2024-03-29T04:43:15;7.00;99.90
17954;DHT22;9102;53.548;9.926;2024-03-29T04:45:43;7.00;99.90
17954;DHT22;9102;53.548;9.926;2024-03-29T04:48:10;7.00;99.90
17954;DHT22;9102;53.548;9.926;2024-03-29T04:50:37;7.00;99.90
17954;DHT22;9102;53.548;9.926;2024-03-29T04:53:04;7.00;99.90
17954;DHT22;9102;53.548;9.926;2024-03-29T04:55:31;7.00;99.90
17954;DHT22;9102;53.548;9.926;2024-03-29T04:57:59;7.10;99.90
17954;DHT22;9102;53.548;9.926;2024-03-29T05:00:26;7.10;99.90
17954;DHT22;9102;53.548;9.926;2024-03-29T05:02:52;7.10;99.90
17954;DHT22;9102;53.548;9.926;2024-03-29T05:05:19;7.10;99.90
17954;DHT22;9102;53.548;9.926;2024-03-29T05:07:46;7.10;99.90
17954;DHT22;9102;53.548;9.926;2024-03-29T05:10:13;7.10;99.90
17954;DHT22;9102;53.548;9.926;2024-03-29T05:12:41;7.20;99.90
17954;DHT22;9102;53.548;9.926;2024-03-29T05:15:09;7.20;99.90
17954;DHT22;9102;53.548;9.926;2024-03-29T05:17:37;7.20;99.90
17954;DHT22;9102;53.548;9.926;2024-03-29T05:20:04;7.20;99.90
17954;DHT22;9102;53.548;9.926;2024-03-29T05:22:31;7.20;99.90
17954;DHT22;9102;53.548;9.926;2024-03-29T05:24:57;7.30;99.90
17954;DHT22;9102;53.548;9.926;2024-03-29T05:27:24;7.30;99.90
17954;DHT22;9102;53.548;9.926;2024-03-29T05:29:51;7.30;99.90
17954;DHT22;9102;53.548;9.926;2024-03-29T05:32:19;7.30;99.90
17954;DHT22;9102;53.548;9.926;2024-03-29T05:34:46;7.40;99.90
17954;DHT22;9102;53.548;9.926;2024-03-29T05:37:13;7.40;99.90
17954;DHT22;9102;53.548;9.926;2024-03-29T05:39:41;7.40;99.90
17954;DHT22;9102;53.548;9.926;2024-03-29T05:42:08;7.40;99.90
17954;DHT22;9102;53.548;9.926;2024-03-29T05:44:35;7.40;99.90
17954;DHT22;9102;53.548;9.926;2024-03-29T05:47:03;7.40;99.90
17954;DHT22;9102;53.548;9.926;2024-03-29T05:49:32;7.50;99.90
17954;DHT22;9102;53.548;9.926;2024-03-29T05:51:58;7.50;99.90
17954;DHT22;9102;53.548;9.926;2024-03-29T05:54:25;7.50;99.90
17954;DHT22;9102;53.548;9.926;2024-03-29T05:56:52;7.60;99.90
17954;DHT22;9102;53.548;9.926;2024-03-29T05:59:18;7.60;99.90
17954;DHT22;9102;53.548;9.926;2024-03-29T06:01:45;7.60;99.90
17954;DHT22;9102;53.548;9.926;2024-03-29T06:04:12;7.70;99.90
17954;DHT22;9102;53.548;9.926;2024-03-29T06:06:42;7.70;99.90
17954;DHT22;9102;53.548;9.926;2024-03-29T06:09:09;7.70;99.90
17954;DHT22;9102;53.548;9.926;2024-03-29T06:11:36;7.80;99.90
17954;DHT22;9102;53.548;9.926;2024-03-29T06:14:03;7.80;99.90
17954;DHT22;9102;53.548;9.926;2024-03-29T06:16:47;7.80;99.90
17954;DHT22;9102;53.548;9.926;2024-03-29T06:19:31;7.90;99.90
17954;DHT22;9102;53.548;9.926;2024-03-29T06:21:59;7.90;99.90
17954;DHT22;9102;53.548;9.926;2024-03-29T06:24:26;8.00;99.90
17954;DHT22;9102;53.548;9.926;2024-03-29T06:26:53;7.90;99.90
17954;DHT22;9102;53.548;9.926;2024-03-29T06:29:19;8.00;99.90
17954;DHT22;9102;53.548;9.926;2024-03-29T06:31:46;8.00;99.90
17954;DHT22;9102;53.548;9.926;2024-03-29T06:34:13;8.00;99.90
17954;DHT22;9102;53.548;9.926;2024-03-29T06:36:39;8.10;99.90
17954;DHT22;9102;53.548;9.926;2024-03-29T06:39:07;8.20;99.90
17954;DHT22;9102;53.548;9.926;2024-03-29T06:41:35;8.20;99.90
17954;DHT22;9102;53.548;9.926;2024-03-29T06:44:02;8.20;99.90
17954;DHT22;9102;53.548;9.926;2024-03-29T06:46:29;8.30;99.90
17954;DHT22;9102;53.548;9.926;2024-03-29T06:48:57;8.30;99.90
17954;DHT22;9102;53.548;9.926;2024-03-29T06:51:24;8.30;99.90
17954;DHT22;9102;53.548;9.926;2024-03-29T06:53:50;8.40;99.90
17954;DHT22;9102;53.548;9.926;2024-03-29T06:56:20;8.40;99.90
17954;DHT22;9102;53.548;9.926;2024-03-29T06:58:46;8.60;99.90
17954;DHT22;9102;53.548;9.926;2024-03-29T07:01:13;8.50;99.90
17954;DHT22;9102;53.548;9.926;2024-03-29T07:03:40;8.60;99.90
17954;DHT22;9102;53.548;9.926;2024-03-29T07:06:07;8.60;99.90
17954;DHT22;9102;53.548;9.926;2024-03-29T07:08:33;8.70;99.90
17954;DHT22;9102;53.548;9.926;2024-03-29T07:11:01;8.80;99.90
17954;DHT22;9102;53.548;9.926;2024-03-29T07:13:30;8.90;99.90
17954;DHT22;9102;53.548;9.926;2024-03-29T07:15:57;8.90;99.90
17954;DHT22;9102;53.548;9.926;2024-03-29T07:18:24;8.90;99.90
17954;DHT22;9102;53.548;9.926;2024-03-29T07:20:51;9.00;99.90
17954;DHT22;9102;53.548;9.926;2024-03-29T07:23:18;9.00;99.90
17954;DHT22;9102;53.548;9.926;2024-03-29T07:25:56;9.10;99.90
17954;DHT22;9102;53.548;9.926;2024-03-29T07:28:23;9.20;99.90
17954;DHT22;9102;53.548;9.926;2024-03-29T07:30:51;9.30;99.90
17954;DHT22;9102;53.548;9.926;2024-03-29T07:33:18;9.40;99.90
17954;DHT22;9102;53.548;9.926;2024-03-29T07:35:46;9.50;99.90
17954;DHT22;9102;53.548;9.926;2024-03-29T07:38:13;9.50;99.90
17954;DHT22;9102;53.548;9.926;2024-03-29T07:40:41;9.60;99.90
17954;DHT22;9102;53.548;9.926;2024-03-29T07:43:07;9.60;99.90
17954;DHT22;9102;53.548;9.926;2024-03-29T07:45:34;9.60;99.90
17954;DHT22;9102;53.548;9.926;2024-03-29T07:48:03;9.80;99.90
17954;DHT22;9102;53.548;9.926;2024-03-29T07:50:30;9.90;99.90
17954;DHT22;9102;53.548;9.926;2024-03-29T07:52:56;10.00;99.90
17954;DHT22;9102;53.548;9.926;2024-03-29T07:55:23;9.90;99.90
17954;DHT22;9102;53.548;9.926;2024-03-29T07:57:50;9.90;99.90
17954;DHT22;9102;53.548;9.926;2024-03-29T08:00:17;9.80;99.90
17954;DHT22;9102;53.548;9.926;2024-03-29T08:02:44;9.90;99.90
17954;DHT22;9102;53.548;9.926;2024-03-29T08:05:13;9.90;99.90
17954;DHT22;9102;53.548;9.926;2024-03-29T08:07:39;9.90;99.90
17954;DHT22;9102;53.548;9.926;2024-03-29T08:10:07;9.90;99.90
17954;DHT22;9102;53.548;9.926;2024-03-29T08:12:33;9.90;99.90
17954;DHT22;9102;53.548;9.926;2024-03-29T08:15:02;9.90;99.90
17954;DHT22;9102;53.548;9.926;2024-03-29T08:17:29;9.90;99.90
17954;DHT22;9102;53.548;9.926;2024-03-29T08:19:56;9.90;99.90
17954;DHT22;9102;53.548;9.926;2024-03-29T08:22:24;9.80;99.90
17954;DHT22;9102;53.548;9.926;2024-03-29T08:24:53;9.90;99.90
17954;DHT22;9102;53.548;9.926;2024-03-29T08:27:20;9.90;99.90
17954;DHT22;9102;53.548;9.926;2024-03-29T08:29:46;9.90;99.90
17954;DHT22;9102;53.548;9.926;2024-03-29T08:32:14;9.90;99.90
17954;DHT22;9102;53.548;9.926;2024-03-29T08:34:41;10.00;99.90
17954;DHT22;9102;53.548;9.926;2024-03-29T08:37:08;10.00;99.90
17954;DHT22;9102;53.548;9.926;2024-03-29T08:39:36;10.00;99.90
17954;DHT22;9102;53.548;9.926;2024-03-29T08:42:04;9.90;99.90
17954;DHT22;9102;53.548;9.926;2024-03-29T08:44:32;10.00;99.90
17954;DHT22;9102;53.548;9.926;2024-03-29T08:46:58;10.00;99.90
17954;DHT22;9102;53.548;9.926;2024-03-29T08:49:27;10.10;99.90
17954;DHT22;9102;53.548;9.926;2024-03-29T08:51:53;10.30;99.90
17954;DHT22;9102;53.548;9.926;2024-03-29T08:54:21;10.30;99.90
17954;DHT22;9102;53.548;9.926;2024-03-29T08:56:49;10.50;99.90
17954;DHT22;9102;53.548;9.926;2024-03-29T08:59:16;10.60;99.90
17954;DHT22;9102;53.548;9.926;2024-03-29T09:01:45;10.70;99.90
17954;DHT22;9102;53.548;9.926;2024-03-29T09:04:14;10.70;99.90
17954;DHT22;9102;53.548;9.926;2024-03-29T09:06:41;10.80;99.90
17954;DHT22;9102;53.548;9.926;2024-03-29T09:09:08;10.80;99.90
17954;DHT22;9102;53.548;9.926;2024-03-29T09:11:35;10.80;99.90
17954;DHT22;9102;53.548;9.926;2024-03-29T09:14:03;10.80;99.90
17954;DHT22;9102;53.548;9.926;2024-03-29T09:16:32;10.50;99.90
17954;DHT22;9102;53.548;9.926;2024-03-29T09:18:59;10.30;99.90
17954;DHT22;9102;53.548;9.926;2024-03-29T09:21:26;10.30;99.90
17954;DHT22;9102;53.548;9.926;2024-03-29T09:23:52;10.30;99.90
17954;DHT22;9102;53.548;9.926;2024-03-29T09:26:19;10.30;99.90
17954;DHT22;9102;53.548;9.926;2024-03-29T09:28:46;10.40;99.90
17954;DHT22;9102;53.548;9.926;2024-03-29T09:31:14;10.50;99.90
17954;DHT22;9102;53.548;9.926;2024-03-29T09:33:41;10.20;99.90
17954;DHT22;9102;53.548;9.926;2024-03-29T09:36:08;10.00;99.90
17954;DHT22;9102;53.548;9.926;2024-03-29T09:38:36;10.00;99.90
17954;DHT22;9102;53.548;9.926;2024-03-29T09:41:07;9.80;99.90
17954;DHT22;9102;53.548;9.926;2024-03-29T09:43:35;9.90;99.90
17954;DHT22;9102;53.548;9.926;2024-03-29T09:46:02;9.90;99.90
17954;DHT22;9102;53.548;9.926;2024-03-29T09:48:31;9.90;99.90
17954;DHT22;9102;53.548;9.926;2024-03-29T09:51:02;9.90;99.90
17954;DHT22;9102;53.548;9.926;2024-03-29T09:53:29;10.10;99.90
17954;DHT22;9102;53.548;9.926;2024-03-29T09:55:57;10.10;99.90
17954;DHT22;9102;53.548;9.926;2024-03-29T09:58:24;10.00;99.90
17954;DHT22;9102;53.548;9.926;2024-03-29T10:00:51;10.10;99.90
17954;DHT22;9102;53.548;9.926;2024-03-29T10:03:18;10.00;99.90
17954;DHT22;9102;53.548;9.926;2024-03-29T10:05:48;10.10;99.90
17954;DHT22;9102;53.548;9.926;2024-03-29T10:08:16;10.00;99.90
17954;DHT22;9102;53.548;9.926;2024-03-29T10:10:43;10.20;99.90
17954;DHT22;9102;53.548;9.926;2024-03-29T10:13:09;10.20;99.90
17954;DHT22;9102;53.548;9.926;2024-03-29T10:15:36;10.20;99.90
17954;DHT22;9102;53.548;9.926;2024-03-29T10:18:05;10.20;99.90
17954;DHT22;9102;53.548;9.926;2024-03-29T10:20:31;10.10;99.90
17954;DHT22;9102;53.548;9.926;2024-03-29T10:23:02;10.10;99.90
17954;DHT22;9102;53.548;9.926;2024-03-29T10:25:31;10.30;99.90
17954;DHT22;9102;53.548;9.926;2024-03-29T10:27:59;10.40;99.90
17954;DHT22;9102;53.548;9.926;2024-03-29T10:30:27;10.30;99.90
17954;DHT22;9102;53.548;9.926;2024-03-29T10:32:55;10.30;99.90
17954;DHT22;9102;53.548;9.926;2024-03-29T10:35:22;10.40;99.90
17954;DHT22;9102;53.548;9.926;2024-03-29T10:37:52;10.50;99.90
17954;DHT22;9102;53.548;9.926;2024-03-29T10:40:21;10.50;99.90
17954;DHT22;9102;53.548;9.926;2024-03-29T10:42:50;10.50;99.90
17954;DHT22;9102;53.548;9.926;2024-03-29T10:45:18;10.50;99.90
17954;DHT22;9102;53.548;9.926;2024-03-29T10:47:46;10.40;99.90
17954;DHT22;9102;53.548;9.926;2024-03-29T10:50:13;10.40;99.90
17954;DHT22;9102;53.548;9.926;2024-03-29T10:52:40;10.40;99.90
17954;DHT22;9102;53.548;9.926;2024-03-29T10:55:08;10.40;99.90
17954;DHT22;9102;53.548;9.926;2024-03-29T10:57:39;10.40;99.90
17954;DHT22;9102;53.548;9.926;2024-03-29T11:00:10;10.40;99.90
17954;DHT22;9102;53.548;9.926;2024-03-29T11:02:48;10.40;99.90
17954;DHT22;9102;53.548;9.926;2024-03-29T11:05:16;10.30;99.90
17954;DHT22;9102;53.548;9.926;2024-03-29T11:07:44;10.40;99.90
17954;DHT22;9102;53.548;9.926;2024-03-29T11:10:15;10.40;99.90
17954;DHT22;9102;53.548;9.926;2024-03-29T11:12:50;10.40;99.90
17954;DHT22;9102;53.548;9.926;2024-03-29T11:15:30;10.50;99.90
17954;DHT22;9102;53.548;9.926;2024-03-29T11:17:57;10.50;99.90
17954;DHT22;9102;53.548;9.926;2024-03-29T11:20:25;10.60;99.90
17954;DHT22;9102;53.548;9.926;2024-03-29T11:23:02;10.60;99.90
17954;DHT22;9102;53.548;9.926;2024-03-29T11:25:41;10.70;99.90
17954;DHT22;9102;53.548;9.926;2024-03-29T11:28:11;10.70;99.90
17954;DHT22;9102;53.548;9.926;2024-03-29T11:30:41;10.70;99.90
17954;DHT22;9102;53.548;9.926;2024-03-29T11:35:50;10.80;99.90
17954;DHT22;9102;53.548;9.926;2024-03-29T11:38:17;11.00;99.90
17954;DHT22;9102;53.548;9.926;2024-03-29T11:40:53;11.10;99.90
17954;DHT22;9102;53.548;9.926;2024-03-29T11:43:21;11.20;99.90
17954;DHT22;9102;53.548;9.926;2024-03-29T11:45:49;11.20;99.90
17954;DHT22;9102;53.548;9.926;2024-03-29T11:48:25;11.30;99.90
17954;DHT22;9102;53.548;9.926;2024-03-29T11:50:58;11.30;99.90
17954;DHT22;9102;53.548;9.926;2024-03-29T11:53:25;11.60;99.90
17954;DHT22;9102;53.548;9.926;2024-03-29T11:55:53;11.60;99.90
17954;DHT22;9102;53.548;9.926;2024-03-29T11:58:22;11.80;99.90
17954;DHT22;9102;53.548;9.926;2024-03-29T12:00:49;11.90;99.90
17954;DHT22;9102;53.548;9.926;2024-03-29T12:03:17;12.00;99.90
17954;DHT22;9102;53.548;9.926;2024-03-29T12:05:46;12.10;99.90
17954;DHT22;9102;53.548;9.926;2024-03-29T12:08:13;12.20;99.90
17954;DHT22;9102;53.548;9.926;2024-03-29T12:10:40;12.30;99.90
17954;DHT22;9102;53.548;9.926;2024-03-29T12:13:07;12.50;99.90
17954;DHT22;9102;53.548;9.926;2024-03-29T12:15:36;12.60;99.90
17954;DHT22;9102;53.548;9.926;2024-03-29T12:18:04;12.80;99.90
17954;DHT22;9102;53.548;9.926;2024-03-29T12:20:31;12.80;99.90
17954;DHT22;9102;53.548;9.926;2024-03-29T12:22:59;12.90;99.90
17954;DHT22;9102;53.548;9.926;2024-03-29T12:25:26;13.00;99.90
17954;DHT22;9102;53.548;9.926;2024-03-29T12:27:53;13.10;99.90
17954;DHT22;9102;53.548;9.926;2024-03-29T12:30:20;13.10;99.90
17954;DHT22;9102;53.548;9.926;2024-03-29T12:32:59;13.10;99.90
17954;DHT22;9102;53.548;9.926;2024-03-29T12:35:27;13.10;99.90
17954;DHT22;9102;53.548;9.926;2024-03-29T12:37:54;13.10;99.90
17954;DHT22;9102;53.548;9.926;2024-03-29T12:40:23;13.10;99.90
17954;DHT22;9102;53.548;9.926;2024-03-29T12:42:51;13.20;99.90
17954;DHT22;9102;53.548;9.926;2024-03-29T12:45:18;13.20;99.90
17954;DHT22;9102;53.548;9.926;2024-03-29T12:47:45;13.10;99.90
17954;DHT22;9102;53.548;9.926;2024-03-29T12:50:20;13.20;99.90
17954;DHT22;9102;53.548;9.926;2024-03-29T12:52:53;13.20;99.90
17954;DHT22;9102;53.548;9.926;2024-03-29T12:55:20;13.40;99.90
17954;DHT22;9102;53.548;9.926;2024-03-29T12:57:48;13.50;99.90
17954;DHT22;9102;53.548;9.926;2024-03-29T13:00:15;13.60;99.90
17954;DHT22;9102;53.548;9.926;2024-03-29T13:02:42;13.30;99.90
17954;DHT22;9102;53.548;9.926;2024-03-29T13:05:09;13.40;99.90
17954;DHT22;9102;53.548;9.926;2024-03-29T13:07:37;13.40;99.90
17954;DHT22;9102;53.548;9.926;2024-03-29T13:10:04;13.40;99.90
17954;DHT22;9102;53.548;9.926;2024-03-29T13:12:38;13.40;99.90
17954;DHT22;9102;53.548;9.926;2024-03-29T13:15:16;13.40;99.90
17954;DHT22;9102;53.548;9.926;2024-03-29T13:17:43;13.40;99.90
17954;DHT22;9102;53.548;9.926;2024-03-29T13:20:10;13.40;99.90
17954;DHT22;9102;53.548;9.926;2024-03-29T13:22:39;13.50;99.90
17954;DHT22;9102;53.548;9.926;2024-03-29T13:25:07;13.70;99.90
17954;DHT22;9102;53.548;9.926;2024-03-29T13:27:36;13.70;99.90
17954;DHT22;9102;53.548;9.926;2024-03-29T13:30:03;13.70;99.90
17954;DHT22;9102;53.548;9.926;2024-03-29T13:32:30;13.80;99.90
17954;DHT22;9102;53.548;9.926;2024-03-29T13:34:58;13.80;99.90
17954;DHT22;9102;53.548;9.926;2024-03-29T13:37:25;13.70;99.90
17954;DHT22;9102;53.548;9.926;2024-03-29T13:39:55;13.60;99.90
17954;DHT22;9102;53.548;9.926;2024-03-29T13:42:22;13.50;99.90
17954;DHT22;9102;53.548;9.926;2024-03-29T13:44:49;13.40;99.90
17954;DHT22;9102;53.548;9.926;2024-03-29T13:47:17;13.40;99.90
17954;DHT22;9102;53.548;9.926;2024-03-29T13:49:44;13.40;99.90
17954;DHT22;9102;53.548;9.926;2024-03-29T13:52:12;13.20;99.90
17954;DHT22;9102;53.548;9.926;2024-03-29T13:54:42;13.20;99.90
17954;DHT22;9102;53.548;9.926;2024-03-29T13:57:11;13.30;99.90
17954;DHT22;9102;53.548;9.926;2024-03-29T13:59:37;13.60;99.90
17954;DHT22;9102;53.548;9.926;2024-03-29T14:02:04;13.80;99.90
17954;DHT22;9102;53.548;9.926;2024-03-29T14:04:31;13.90;99.90
17954;DHT22;9102;53.548;9.926;2024-03-29T14:06:58;13.80;99.90
17954;DHT22;9102;53.548;9.926;2024-03-29T14:09:27;13.80;99.90
17954;DHT22;9102;53.548;9.926;2024-03-29T14:11:54;13.70;99.90
17954;DHT22;9102;53.548;9.926;2024-03-29T14:14:23;13.60;99.90
17954;DHT22;9102;53.548;9.926;2024-03-29T14:16:49;13.40;99.90
17954;DHT22;9102;53.548;9.926;2024-03-29T14:19:16;13.50;99.90
17954;DHT22;9102;53.548;9.926;2024-03-29T14:21:43;13.40;99.90
17954;DHT22;9102;53.548;9.926;2024-03-29T14:24:11;13.40;99.90
17954;DHT22;9102;53.548;9.926;2024-03-29T14:26:37;13.60;99.90
17954;DHT22;9102;53.548;9.926;2024-03-29T14:29:05;13.80;99.90
17954;DHT22;9102;53.548;9.926;2024-03-29T14:31:34;14.00;99.90
17954;DHT22;9102;53.548;9.926;2024-03-29T14:34:00;14.20;99.90
17954;DHT22;9102;53.548;9.926;2024-03-29T14:36:27;14.40;99.90
17954;DHT22;9102;53.548;9.926;2024-03-29T14:38:56;14.30;99.90
17954;DHT22;9102;53.548;9.926;2024-03-29T14:41:24;14.30;99.90
17954;DHT22;9102;53.548;9.926;2024-03-29T14:43:50;14.30;99.90
17954;DHT22;9102;53.548;9.926;2024-03-29T14:46:17;14.30;99.90
17954;DHT22;9102;53.548;9.926;2024-03-29T14:48:47;14.40;99.90
17954;DHT22;9102;53.548;9.926;2024-03-29T14:51:15;14.40;99.90
17954;DHT22;9102;53.548;9.926;2024-03-29T14:53:42;14.20;99.90
17954;DHT22;9102;53.548;9.926;2024-03-29T14:56:14;14.10;99.90
17954;DHT22;9102;53.548;9.926;2024-03-29T14:58:41;14.20;99.90
17954;DHT22;9102;53.548;9.926;2024-03-29T15:01:08;14.10;99.90
17954;DHT22;9102;53.548;9.926;2024-03-29T15:03:35;14.00;99.90
17954;DHT22;9102;53.548;9.926;2024-03-29T15:06:03;14.00;99.90
17954;DHT22;9102;53.548;9.926;2024-03-29T15:08:30;14.00;99.90
17954;DHT22;9102;53.548;9.926;2024-03-29T15:10:57;13.80;99.90
17954;DHT22;9102;53.548;9.926;2024-03-29T15:13:24;13.90;99.90
17954;DHT22;9102;53.548;9.926;2024-03-29T15:15:54;13.90;99.90
17954;DHT22;9102;53.548;9.926;2024-03-29T15:18:21;13.90;99.90
17954;DHT22;9102;53.548;9.926;2024-03-29T15:20:53;14.10;99.90
17954;DHT22;9102;53.548;9.926;2024-03-29T15:23:22;14.20;99.90
17954;DHT22;9102;53.548;9.926;2024-03-29T15:25:50;14.20;99.90
17954;DHT22;9102;53.548;9.926;2024-03-29T15:28:17;14.20;99.90
17954;DHT22;9102;53.548;9.926;2024-03-29T15:31:08;14.10;99.90
17954;DHT22;9102;53.548;9.926;2024-03-29T15:33:34;13.90;99.90
17954;DHT22;9102;53.548;9.926;2024-03-29T15:36:01;13.80;99.90
17954;DHT22;9102;53.548;9.926;2024-03-29T15:38:29;13.70;99.90
17954;DHT22;9102;53.548;9.926;2024-03-29T15:40:56;13.60;99.90
17954;DHT22;9102;53.548;9.926;2024-03-29T15:43:24;13.60;99.90
17954;DHT22;9102;53.548;9.926;2024-03-29T15:45:50;13.60;99.90
17954;DHT22;9102;53.548;9.926;2024-03-29T15:48:17;13.50;99.90
17954;DHT22;9102;53.548;9.926;2024-03-29T15:50:45;13.60;99.90
17954;DHT22;9102;53.548;9.926;2024-03-29T15:53:12;13.60;99.90
17954;DHT22;9102;53.548;9.926;2024-03-29T15:55:41;13.60;99.90
17954;DHT22;9102;53.548;9.926;2024-03-29T15:58:08;13.60;99.90
17954;DHT22;9102;53.548;9.926;2024-03-29T16:00:34;13.50;99.90